Time;durP1;ratioP1;P1;durP2;ratioP2;P2;SDS_P1;SDS_P2;PMS_P1;PMS_P2;Temp;Humidity;BMP_temperature;BMP_pressure;BME280_temperature;BME280_humidity;BME280_pressure;Samples;Min_cycle;Max_cycle;Signal;HPM_P1;HPM_P2
2023/04/27 00:01:33;;;;;;;3.33;2.08;;;17.40;76.70;;;;;;5036543;28;20024;-75
2023/04/27 00:03:59;;;;;;;2.03;1.60;;;17.40;76.80;;;;;;5035076;28;20056;-75
2023/04/27 00:06:26;;;;;;;2.58;1.70;;;17.40;76.80;;;;;;5036345;28;20022;-74
2023/04/27 00:08:51;;;;;;;2.90;1.90;;;17.40;77.00;;;;;;5036524;28;20025;-75
2023/04/27 00:11:17;;;;;;;2.47;1.63;;;17.40;77.00;;;;;;5035072;28;20376;-75
2023/04/27 00:13:43;;;;;;;2.03;1.67;;;17.40;77.00;;;;;;5036193;28;20594;-74
2023/04/27 00:16:08;;;;;;;4.13;1.73;;;17.40;77.10;;;;;;5036172;28;20018;-75
2023/04/27 00:18:34;;;;;;;2.78;1.90;;;17.40;77.00;;;;;;5036023;28;20437;-75
2023/04/27 00:21:00;;;;;;;2.65;1.73;;;17.40;77.00;;;;;;5035995;28;20021;-75
2023/04/27 00:23:26;;;;;;;2.53;1.70;;;17.30;77.00;;;;;;5035920;28;20064;-75
2023/04/27 00:25:52;;;;;;;3.72;1.55;;;17.40;77.10;;;;;;5036064;28;20104;-75
2023/04/27 00:28:18;;;;;;;2.45;1.50;;;17.40;77.10;;;;;;5035783;28;20067;-75
2023/04/27 00:30:43;;;;;;;1.50;1.40;;;17.40;77.10;;;;;;5036059;28;20033;-75
2023/04/27 00:33:09;;;;;;;2.70;1.55;;;17.30;77.10;;;;;;5034630;28;20033;-74
2023/04/27 00:35:35;;;;;;;2.00;1.40;;;17.30;77.10;;;;;;5035644;28;20025;-75
2023/04/27 00:38:01;;;;;;;2.15;1.60;;;17.30;77.10;;;;;;5035711;28;20435;-75
2023/04/27 00:40:26;;;;;;;3.05;1.77;;;17.30;77.10;;;;;;5034483;28;20083;-74
2023/04/27 00:42:52;;;;;;;1.55;1.45;;;17.30;77.20;;;;;;5035574;28;20033;-74
2023/04/27 00:45:17;;;;;;;2.28;1.58;;;17.30;77.20;;;;;;5035821;28;20104;-75
2023/04/27 00:47:43;;;;;;;2.22;1.63;;;17.30;77.20;;;;;;5034389;28;20026;-75
2023/04/27 00:50:10;;;;;;;1.45;1.35;;;17.30;77.30;;;;;;5035465;28;20378;-75
2023/04/27 00:52:36;;;;;;;1.95;1.20;;;17.30;77.20;;;;;;5035365;28;20021;-75
2023/04/27 00:55:06;;;;;;;2.67;1.55;;;17.30;77.20;;;;;;5034196;28;20026;-75
2023/04/27 00:57:32;;;;;;;1.60;1.50;;;17.30;77.20;;;;;;5018142;28;20041;-75
2023/04/27 01:00:04;;;;;;;1.73;1.45;;;17.30;77.30;;;;;;5034105;28;20029;-75
2023/04/27 01:02:30;;;;;;;1.83;1.70;;;17.30;77.50;;;;;;5034017;28;20091;-75
2023/04/27 01:04:56;;;;;;;3.15;1.30;;;17.30;77.40;;;;;;5035395;28;20476;-75
2023/04/27 01:07:25;;;;;;;2.83;1.90;;;17.30;77.50;;;;;;5016576;28;20017;-74
2023/04/27 01:09:51;;;;;;;2.33;1.50;;;17.30;77.40;;;;;;5035000;28;20022;-75
2023/04/27 01:12:16;;;;;;;2.42;1.40;;;17.30;77.50;;;;;;5035420;28;20070;-75
2023/04/27 01:14:42;;;;;;;2.22;1.50;;;17.30;77.50;;;;;;5035250;28;20029;-75
2023/04/27 01:17:08;;;;;;;3.10;1.52;;;17.30;77.50;;;;;;5034878;28;20028;-75
2023/04/27 01:19:34;;;;;;;2.10;1.40;;;17.20;77.40;;;;;;5035070;28;20115;-75
2023/04/27 01:22:00;;;;;;;1.70;1.20;;;17.20;77.40;;;;;;5034962;28;20021;-75
2023/04/27 01:24:26;;;;;;;1.60;1.10;;;17.20;77.50;;;;;;5033822;28;20033;-75
2023/04/27 01:26:52;;;;;;;2.42;1.40;;;17.20;77.60;;;;;;5034962;28;20032;-75
2023/04/27 01:29:18;;;;;;;1.35;1.23;;;17.20;77.60;;;;;;5033456;28;20104;-75
2023/04/27 01:31:45;;;;;;;5.78;1.50;;;17.20;77.60;;;;;;5034752;28;20112;-75
2023/04/27 01:34:11;;;;;;;1.25;1.15;;;17.20;77.60;;;;;;5034783;28;20041;-75
2023/04/27 01:36:36;;;;;;;1.95;1.42;;;17.20;77.60;;;;;;5034701;28;20531;-75
2023/04/27 01:39:03;;;;;;;2.53;1.67;;;17.20;77.70;;;;;;5034704;28;20164;-75
2023/04/27 01:41:28;;;;;;;2.05;1.33;;;17.20;77.70;;;;;;5033441;28;20028;-75
2023/04/27 01:43:54;;;;;;;2.20;1.60;;;17.20;77.70;;;;;;5034538;28;20380;-74
2023/04/27 01:46:20;;;;;;;2.50;1.52;;;17.20;77.80;;;;;;5034420;28;20032;-75
2023/04/27 01:48:45;;;;;;;1.98;1.50;;;17.20;77.70;;;;;;5034619;28;20095;-75
2023/04/27 01:51:11;;;;;;;3.25;1.48;;;17.20;77.70;;;;;;5032986;28;20029;-75
2023/04/27 01:53:37;;;;;;;3.03;1.27;;;17.20;77.80;;;;;;5034555;28;20037;-75
2023/04/27 01:56:02;;;;;;;1.83;1.30;;;17.20;77.90;;;;;;5033013;28;20148;-75
2023/04/27 01:58:28;;;;;;;2.55;1.58;;;17.20;77.90;;;;;;5033252;28;20028;-75
2023/04/27 02:00:54;;;;;;;1.90;1.13;;;17.20;77.90;;;;;;5034102;28;20049;-75
2023/04/27 02:03:20;;;;;;;2.80;1.50;;;17.20;77.90;;;;;;5034275;28;20068;-75
2023/04/27 02:05:46;;;;;;;1.83;1.30;;;17.20;77.90;;;;;;5034105;28;20109;-75
2023/04/27 02:08:12;;;;;;;2.10;1.50;;;17.20;77.90;;;;;;5034098;28;20040;-75
2023/04/27 02:10:38;;;;;;;1.65;1.27;;;17.20;78.00;;;;;;5032860;28;20017;-75
2023/04/27 02:13:03;;;;;;;2.03;1.50;;;17.20;78.00;;;;;;5034003;28;20025;-74
2023/04/27 02:15:29;;;;;;;1.30;1.20;;;17.20;78.00;;;;;;5033694;28;20028;-74
2023/04/27 02:17:56;;;;;;;1.80;1.20;;;17.10;78.00;;;;;;5032569;28;20056;-75
2023/04/27 02:20:21;;;;;;;1.45;1.10;;;17.20;78.10;;;;;;5032231;28;20447;-75
2023/04/27 02:22:47;;;;;;;1.50;1.40;;;17.20;78.10;;;;;;5033963;28;20068;-74
2023/04/27 02:25:13;;;;;;;2.22;1.40;;;17.10;78.10;;;;;;5033712;28;20024;-75
2023/04/27 02:27:42;;;;;;;1.45;1.20;;;17.10;78.10;;;;;;5032540;28;20067;-75
2023/04/27 02:30:08;;;;;;;2.13;1.20;;;17.10;78.10;;;;;;5033468;28;20033;-74
2023/04/27 02:32:34;;;;;;;1.50;1.23;;;17.10;78.10;;;;;;5033657;28;20022;-74
2023/04/27 02:35:00;;;;;;;1.35;1.17;;;17.10;78.10;;;;;;5032548;28;20529;-75
2023/04/27 02:37:26;;;;;;;1.92;1.38;;;17.10;78.20;;;;;;5032181;28;20029;-75
2023/04/27 02:39:52;;;;;;;1.58;1.40;;;17.10;78.20;;;;;;5033494;28;20025;-75
2023/04/27 02:42:17;;;;;;;1.30;1.20;;;17.10;78.20;;;;;;5033474;28;20041;-75
2023/04/27 02:44:43;;;;;;;3.33;1.30;;;17.10;78.20;;;;;;5033286;28;20029;-75
2023/04/27 02:47:09;;;;;;;1.35;1.20;;;17.10;79.20;;;;;;5032369;28;20030;-75
2023/04/27 02:49:35;;;;;;;1.30;1.20;;;17.10;78.30;;;;;;5033479;28;20477;-75
2023/04/27 02:52:01;;;;;;;2.67;1.30;;;17.10;78.20;;;;;;5031937;28;20107;-75
2023/04/27 02:54:26;;;;;;;1.20;1.10;;;17.10;78.30;;;;;;5032011;28;20025;-75
2023/04/27 02:56:52;;;;;;;3.35;1.30;;;17.10;78.30;;;;;;5033339;28;20049;-75
2023/04/27 02:59:17;;;;;;;1.27;1.00;;;17.10;78.40;;;;;;5032771;28;20018;-74
2023/04/27 03:01:43;;;;;;;3.83;1.40;;;17.10;78.40;;;;;;5033352;28;20464;-75
2023/04/27 03:04:09;;;;;;;2.75;1.50;;;17.10;78.30;;;;;;5033123;28;20029;-76
2023/04/27 03:06:35;;;;;;;1.98;1.02;;;17.10;78.40;;;;;;5033213;28;20505;-75
2023/04/27 03:09:00;;;;;;;1.15;0.90;;;17.10;78.40;;;;;;5033184;28;20030;-75
2023/04/27 03:11:26;;;;;;;2.30;1.10;;;17.10;78.40;;;;;;5015275;28;20040;-74
2023/04/27 03:13:52;;;;;;;1.55;1.23;;;17.10;78.30;;;;;;5032877;28;20029;-75
2023/04/27 03:16:17;;;;;;;1.30;1.20;;;17.10;78.40;;;;;;5031938;28;20025;-74
2023/04/27 03:18:43;;;;;;;2.20;1.00;;;17.10;78.40;;;;;;5031733;28;20033;-75
2023/04/27 03:21:09;;;;;;;1.20;1.10;;;17.10;78.40;;;;;;5033171;28;20065;-74
2023/04/27 03:23:35;;;;;;;1.58;1.10;;;17.10;78.40;;;;;;5031572;28;20464;-75
2023/04/27 03:26:05;;;;;;;1.25;1.00;;;17.10;78.40;;;;;;5031578;28;20036;-74
2023/04/27 03:28:31;;;;;;;2.47;1.25;;;17.10;78.40;;;;;;5031765;28;20099;-75
2023/04/27 03:30:56;;;;;;;1.65;1.13;;;17.10;78.40;;;;;;5032226;28;20072;-74
2023/04/27 03:33:22;;;;;;;4.03;1.20;;;17.10;78.40;;;;;;5032577;28;20456;-75
2023/04/27 03:35:55;;;;;;;1.48;0.80;;;17.10;78.40;;;;;;5033005;28;20104;-75
2023/04/27 03:38:20;;;;;;;1.92;1.10;;;17.10;78.40;;;;;;5031591;28;20028;-74
2023/04/27 03:40:46;;;;;;;1.27;1.17;;;17.10;78.40;;;;;;5032703;28;20026;-75
2023/04/27 03:43:12;;;;;;;1.40;1.08;;;17.10;78.40;;;;;;5032610;28;20021;-74
2023/04/27 03:45:37;;;;;;;1.88;1.33;;;17.10;78.50;;;;;;5032995;28;20036;-74
2023/04/27 03:48:03;;;;;;;1.20;1.10;;;17.10;78.30;;;;;;5031493;28;20500;-74
2023/04/27 03:50:29;;;;;;;1.20;1.10;;;17.10;78.40;;;;;;5032572;28;20025;-74
2023/04/27 03:52:54;;;;;;;1.40;0.90;;;17.10;78.40;;;;;;5032588;28;20036;-75
2023/04/27 03:55:20;;;;;;;2.22;1.15;;;17.10;78.50;;;;;;5032451;28;20472;-74
2023/04/27 03:57:46;;;;;;;1.00;0.90;;;17.10;78.50;;;;;;5032475;28;20522;-74
2023/04/27 04:00:13;;;;;;;2.50;0.80;;;17.00;78.50;;;;;;5032482;28;20025;-75
2023/04/27 04:02:39;;;;;;;1.02;0.93;;;17.10;78.60;;;;;;5032596;28;20022;-74
2023/04/27 04:05:05;;;;;;;1.73;1.10;;;17.10;78.50;;;;;;5032674;28;20026;-74
2023/04/27 04:07:30;;;;;;;1.38;1.27;;;17.00;78.50;;;;;;5032486;28;20032;-75
2023/04/27 04:09:56;;;;;;;1.40;1.00;;;17.10;78.50;;;;;;5032519;28;20088;-75
2023/04/27 04:12:21;;;;;;;1.20;1.10;;;17.00;78.60;;;;;;5032265;28;20096;-75
2023/04/27 04:14:47;;;;;;;0.80;0.80;;;17.00;78.50;;;;;;5032295;28;20094;-75
2023/04/27 04:17:13;;;;;;;2.42;0.98;;;17.00;78.60;;;;;;5031144;28;20365;-75
2023/04/27 04:19:39;;;;;;;1.00;0.90;;;17.00;78.60;;;;;;5031028;28;20048;-75
2023/04/27 04:22:05;;;;;;;1.70;1.27;;;17.00;78.60;;;;;;5032429;28;20018;-74
2023/04/27 04:24:30;;;;;;;2.05;1.23;;;17.00;78.60;;;;;;5031705;28;20034;-75
2023/04/27 04:26:57;;;;;;;2.03;1.13;;;17.00;78.60;;;;;;5032065;28;20109;-75
2023/04/27 04:29:23;;;;;;;1.23;1.00;;;17.00;78.60;;;;;;5032221;28;20030;-74
2023/04/27 04:31:49;;;;;;;2.70;0.80;;;17.00;78.60;;;;;;5032377;28;20029;-75
2023/04/27 04:34:14;;;;;;;1.75;1.10;;;17.00;78.60;;;;;;5032285;28;20025;-75
2023/04/27 04:36:40;;;;;;;1.23;0.98;;;17.00;78.60;;;;;;5032162;28;20018;-75
2023/04/27 04:39:06;;;;;;;1.25;0.90;;;17.00;78.70;;;;;;5032210;28;20033;-75
2023/04/27 04:41:32;;;;;;;1.08;0.98;;;17.10;78.80;;;;;;5032017;28;20028;-75
2023/04/27 04:43:58;;;;;;;1.60;1.10;;;17.00;78.80;;;;;;5035736;28;20021;-75
2023/04/27 04:46:24;;;;;;;4.00;1.90;;;17.00;78.80;;;;;;5035749;28;20033;-75
2023/04/27 04:48:50;;;;;;;2.60;1.13;;;17.00;78.80;;;;;;5035832;28;20025;-75
2023/04/27 04:51:16;;;;;;;2.65;0.80;;;17.00;78.80;;;;;;5034379;28;20037;-74
2023/04/27 04:53:42;;;;;;;2.42;0.80;;;17.00;78.80;;;;;;5034056;28;20029;-75
2023/04/27 04:56:11;;;;;;;1.10;1.00;;;17.00;78.90;;;;;;5033808;28;20053;-75
2023/04/27 04:58:37;;;;;;;3.30;1.10;;;17.00;78.70;;;;;;5033942;28;20424;-74
2023/04/27 05:01:03;;;;;;;1.48;0.90;;;17.00;78.80;;;;;;5034049;28;20113;-75
2023/04/27 05:03:29;;;;;;;2.30;0.90;;;17.00;78.90;;;;;;5034010;28;20026;-75
2023/04/27 05:05:54;;;;;;;1.38;0.95;;;17.00;78.90;;;;;;5035243;28;20053;-74
2023/04/27 05:08:20;;;;;;;1.60;0.98;;;17.00;78.90;;;;;;5035270;28;20108;-75
2023/04/27 05:10:52;;;;;;;1.95;1.15;;;17.00;79.00;;;;;;5034830;28;20083;-75
2023/04/27 05:13:18;;;;;;;1.85;1.05;;;17.00;78.90;;;;;;5033900;28;20468;-75
2023/04/27 05:15:43;;;;;;;1.63;0.98;;;17.00;78.90;;;;;;5033753;28;20061;-75
2023/04/27 05:18:09;;;;;;;1.15;0.90;;;17.00;78.90;;;;;;5035010;28;20025;-74
2023/04/27 05:20:35;;;;;;;0.80;0.80;;;17.00;79.00;;;;;;5033480;28;20392;-75
2023/04/27 05:23:01;;;;;;;0.80;0.80;;;17.00;78.90;;;;;;5034057;28;20151;-74
2023/04/27 05:25:30;;;;;;;2.00;1.00;;;17.00;78.90;;;;;;5034740;28;20494;-75
2023/04/27 05:27:56;;;;;;;0.75;0.75;;;17.00;78.90;;;;;;5034793;28;20430;-75
2023/04/27 05:30:21;;;;;;;1.67;1.10;;;17.00;78.90;;;;;;5034847;28;20029;-75
2023/04/27 05:32:47;;;;;;;0.93;0.85;;;17.00;79.00;;;;;;5033393;28;20029;-75
2023/04/27 05:35:13;;;;;;;2.38;0.80;;;17.00;78.90;;;;;;5034889;28;20104;-76
2023/04/27 05:37:38;;;;;;;1.08;0.98;;;17.00;78.90;;;;;;5033274;28;20055;-75
2023/04/27 05:40:06;;;;;;;1.52;0.90;;;17.00;78.90;;;;;;5034339;28;20029;-75
2023/04/27 05:42:32;;;;;;;2.58;0.90;;;17.00;78.90;;;;;;5033145;28;20029;-75
2023/04/27 05:44:57;;;;;;;1.02;0.73;;;17.00;79.00;;;;;;5034604;28;20018;-75
2023/04/27 05:47:23;;;;;;;0.90;0.90;;;17.00;78.90;;;;;;5033171;28;20030;-75
2023/04/27 05:49:52;;;;;;;0.75;0.75;;;17.00;79.00;;;;;;5034559;28;20029;-74
2023/04/27 05:52:18;;;;;;;1.00;0.90;;;17.00;79.00;;;;;;5032190;28;20026;-74
2023/04/27 05:54:47;;;;;;;2.72;1.00;;;17.00;78.60;;;;;;5032191;28;20519;-75
2023/04/27 05:57:13;;;;;;;0.50;0.50;;;17.00;77.60;;;;;;5032874;28;20080;-75
2023/04/27 05:59:39;;;;;;;1.08;0.63;;;17.00;77.00;;;;;;5028672;28;20033;-74
2023/04/27 06:02:05;;;;;;;0.82;0.60;;;17.00;76.60;;;;;;5013276;28;20097;-74
2023/04/27 06:04:32;;;;;;;2.17;0.60;;;17.00;76.20;;;;;;5013170;28;20121;-73
2023/04/27 06:06:58;;;;;;;0.50;0.50;;;17.00;76.10;;;;;;5014038;28;20088;-73
2023/04/27 06:09:24;;;;;;;1.45;1.05;;;17.00;76.20;;;;;;5013215;28;20026;-72
2023/04/27 06:11:50;;;;;;;0.60;0.60;;;16.90;76.00;;;;;;5031363;28;20029;-75
2023/04/27 06:14:15;;;;;;;2.95;0.73;;;16.90;76.10;;;;;;5032713;28;20026;-76
2023/04/27 06:16:41;;;;;;;1.30;0.40;;;16.90;76.10;;;;;;5032607;28;20021;-76
2023/04/27 06:19:07;;;;;;;0.63;0.50;;;16.90;75.90;;;;;;5032745;28;20021;-75
2023/04/27 06:21:33;;;;;;;0.88;0.60;;;16.90;76.00;;;;;;5033375;28;20446;-75
2023/04/27 06:23:59;;;;;;;1.50;0.80;;;16.90;76.00;;;;;;5032758;28;20026;-75
2023/04/27 06:26:25;;;;;;;2.03;0.60;;;16.90;76.00;;;;;;5032465;28;20022;-75
2023/04/27 06:28:51;;;;;;;2.50;0.57;;;17.00;76.10;;;;;;5032534;28;20100;-76
2023/04/27 06:31:16;;;;;;;2.42;0.82;;;16.90;76.10;;;;;;5032569;28;20383;-75
2023/04/27 06:33:42;;;;;;;3.92;1.23;;;16.90;76.20;;;;;;5033443;28;20027;-75
2023/04/27 06:36:08;;;;;;;2.65;0.90;;;16.90;76.20;;;;;;5032115;28;20018;-76
2023/04/27 06:38:33;;;;;;;10.70;1.25;;;16.90;76.10;;;;;;5032303;28;20469;-75
2023/04/27 06:40:59;;;;;;;5.55;1.13;;;16.90;76.40;;;;;;5033270;28;20105;-74
2023/04/27 06:43:24;;;;;;;5.43;1.15;;;16.90;76.80;;;;;;5032701;28;20030;-74
2023/04/27 06:45:50;;;;;;;6.97;1.20;;;16.90;77.20;;;;;;5031635;28;20036;-74
2023/04/27 06:48:16;;;;;;;7.20;1.67;;;16.90;77.60;;;;;;5032834;28;20029;-74
2023/04/27 06:50:42;;;;;;;6.22;1.02;;;16.90;77.80;;;;;;5030482;28;20067;-74
2023/04/27 06:53:09;;;;;;;5.47;1.55;;;17.00;77.90;;;;;;5029755;28;20026;-74
2023/04/27 06:55:34;;;;;;;3.30;1.20;;;17.00;78.00;;;;;;5031285;28;20041;-74
2023/04/27 06:58:01;;;;;;;3.92;1.20;;;17.00;77.90;;;;;;5032636;28;20569;-74
2023/04/27 07:00:26;;;;;;;5.47;1.20;;;17.00;77.90;;;;;;5019561;28;20489;-74
2023/04/27 07:02:52;;;;;;;6.18;1.45;;;17.00;77.90;;;;;;5026323;28;20092;-74
2023/04/27 07:05:18;;;;;;;8.07;1.45;;;17.00;78.00;;;;;;5030295;28;20029;-74
2023/04/27 07:07:43;;;;;;;4.22;1.10;;;17.00;77.90;;;;;;5031131;28;20083;-74
2023/04/27 07:10:09;;;;;;;7.38;1.50;;;17.00;77.90;;;;;;5032344;28;20024;-75
2023/04/27 07:12:36;;;;;;;2.72;1.00;;;17.00;77.80;;;;;;5031418;28;20096;-74
2023/04/27 07:15:03;;;;;;;3.25;1.38;;;17.00;77.90;;;;;;5032359;28;20544;-74
2023/04/27 07:17:29;;;;;;;4.00;1.50;;;17.00;77.90;;;;;;5031188;28;20025;-74
2023/04/27 07:19:55;;;;;;;4.65;1.25;;;17.00;77.70;;;;;;5032131;28;20080;-74
2023/04/27 07:22:21;;;;;;;6.28;1.45;;;17.00;77.70;;;;;;5032470;28;20017;-74
2023/04/27 07:24:46;;;;;;;4.85;1.40;;;17.00;77.70;;;;;;5031091;28;20075;-74
2023/04/27 07:27:13;;;;;;;2.35;0.93;;;17.00;77.70;;;;;;5032389;28;20013;-75
2023/04/27 07:29:39;;;;;;;4.22;1.25;;;17.00;77.60;;;;;;5032327;28;20545;-74
2023/04/27 07:32:06;;;;;;;4.28;1.23;;;16.90;77.50;;;;;;5032354;28;20033;-74
2023/04/27 07:34:31;;;;;;;3.17;1.42;;;17.00;77.60;;;;;;5030771;28;20043;-74
2023/04/27 07:36:57;;;;;;;3.60;1.00;;;16.90;77.50;;;;;;5032324;28;20021;-74
2023/04/27 07:39:23;;;;;;;3.15;1.33;;;17.00;77.50;;;;;;5031274;28;20388;-74
2023/04/27 07:41:49;;;;;;;3.33;1.10;;;16.90;77.40;;;;;;5030894;28;20452;-74
2023/04/27 07:44:17;;;;;;;3.35;1.00;;;16.90;77.30;;;;;;5031003;28;20029;-75
2023/04/27 07:46:42;;;;;;;4.30;1.23;;;16.90;77.30;;;;;;5030940;28;20025;-75
2023/04/27 07:49:08;;;;;;;3.25;1.45;;;16.90;77.20;;;;;;5032126;28;20528;-74
2023/04/27 07:51:34;;;;;;;2.30;1.10;;;16.90;77.30;;;;;;5032158;28;20026;-74
2023/04/27 07:54:01;;;;;;;3.92;1.10;;;16.90;77.20;;;;;;5031969;28;20499;-74
2023/04/27 07:56:27;;;;;;;3.05;0.93;;;16.90;77.20;;;;;;5032055;28;20041;-74
2023/04/27 07:58:52;;;;;;;2.83;1.00;;;16.90;77.20;;;;;;5032027;28;20606;-75
2023/04/27 08:01:18;;;;;;;2.63;0.95;;;16.90;77.10;;;;;;5031900;28;20554;-74
2023/04/27 08:03:43;;;;;;;2.72;0.90;;;16.90;77.10;;;;;;5031912;28;20476;-74
2023/04/27 08:06:09;;;;;;;3.45;1.00;;;16.90;77.00;;;;;;5030846;28;20025;-74
2023/04/27 08:08:35;;;;;;;2.92;1.20;;;16.90;77.00;;;;;;5032024;28;20033;-74
2023/04/27 08:11:00;;;;;;;2.67;0.80;;;16.90;76.90;;;;;;5030579;28;20037;-74
2023/04/27 08:13:26;;;;;;;5.35;1.52;;;16.90;76.90;;;;;;5031877;28;20034;-74
2023/04/27 08:15:57;;;;;;;2.75;1.10;;;16.90;76.80;;;;;;5031848;28;20071;-74
2023/04/27 08:18:23;;;;;;;1.95;0.90;;;16.90;76.90;;;;;;5034834;28;20060;-74
2023/04/27 08:20:48;;;;;;;1.85;1.10;;;16.90;76.80;;;;;;5035480;28;20032;-74
2023/04/27 08:23:14;;;;;;;2.38;0.90;;;16.90;76.80;;;;;;5035528;28;20395;-74
2023/04/27 08:25:40;;;;;;;2.97;0.93;;;16.90;76.70;;;;;;5035649;28;20348;-74
2023/04/27 08:28:05;;;;;;;2.05;0.88;;;16.90;76.70;;;;;;5035665;28;20029;-74
2023/04/27 08:30:31;;;;;;;2.55;0.85;;;16.90;76.60;;;;;;5035523;28;20033;-74
2023/04/27 08:32:57;;;;;;;2.17;0.90;;;16.90;76.70;;;;;;5034976;28;20029;-75
2023/04/27 08:35:22;;;;;;;1.30;0.93;;;16.90;76.60;;;;;;5035292;28;20022;-74
2023/04/27 08:37:48;;;;;;;2.00;0.85;;;16.90;76.50;;;;;;5017621;28;20029;-74
2023/04/27 08:40:14;;;;;;;1.27;0.90;;;16.90;76.50;;;;;;5035405;28;20028;-74
2023/04/27 08:42:40;;;;;;;0.82;0.77;;;16.80;76.50;;;;;;5033882;28;20435;-74
2023/04/27 08:45:07;;;;;;;1.65;1.00;;;16.90;76.40;;;;;;5017699;28;20075;-74
2023/04/27 08:47:33;;;;;;;2.03;1.02;;;16.90;76.40;;;;;;5035305;28;20022;-75
2023/04/27 08:49:58;;;;;;;1.63;0.70;;;16.90;76.40;;;;;;5033760;28;20021;-74
2023/04/27 08:52:24;;;;;;;2.83;0.80;;;16.90;76.40;;;;;;5033983;28;20040;-74
2023/04/27 08:54:50;;;;;;;2.92;0.90;;;16.90;76.40;;;;;;5033585;28;20041;-75
2023/04/27 08:57:16;;;;;;;1.65;0.70;;;16.90;76.40;;;;;;5034719;28;20076;-74
2023/04/27 08:59:44;;;;;;;1.05;0.80;;;16.80;76.20;;;;;;5033824;28;20053;-74
2023/04/27 09:02:19;;;;;;;1.13;0.60;;;16.80;76.20;;;;;;5033551;28;20112;-74
2023/04/27 09:04:45;;;;;;;1.98;1.13;;;16.80;76.20;;;;;;5034764;28;20028;-74
2023/04/27 09:07:14;;;;;;;1.75;0.70;;;16.80;76.20;;;;;;5034790;28;20026;-74
2023/04/27 09:09:40;;;;;;;1.50;0.82;;;16.80;76.20;;;;;;5034763;28;20036;-74
2023/04/27 09:12:19;;;;;;;2.67;0.75;;;16.80;76.20;;;;;;5034691;28;20029;-74
2023/04/27 09:14:58;;;;;;;1.95;0.70;;;16.80;76.20;;;;;;5017490;28;20021;-74
2023/04/27 09:17:27;;;;;;;2.03;1.05;;;16.80;76.10;;;;;;5034348;28;20497;-74
2023/04/27 09:20:22;;;;;;;1.30;0.80;;;16.80;76.20;;;;;;5033282;28;20017;-74
2023/04/27 09:22:56;;;;;;;4.32;0.70;;;16.80;76.10;;;;;;5029606;28;20598;-74
2023/04/27 09:25:23;;;;;;;3.63;1.10;;;16.80;76.10;;;;;;5017765;28;20033;-74
2023/04/27 09:27:48;;;;;;;0.90;0.70;;;16.80;76.10;;;;;;5032974;28;20025;-74
2023/04/27 09:30:14;;;;;;;0.98;0.60;;;16.80;76.10;;;;;;5033341;28;20558;-74
2023/04/27 09:32:49;;;;;;;0.70;0.57;;;16.80;76.10;;;;;;5034326;28;20030;-74
2023/04/27 09:35:21;;;;;;;0.80;0.70;;;16.80;76.20;;;;;;5034140;28;20029;-74
2023/04/27 09:37:48;;;;;;;1.08;0.57;;;16.80;76.00;;;;;;5016720;28;20023;-74
2023/04/27 09:40:13;;;;;;;3.25;0.80;;;16.80;76.10;;;;;;5034137;28;20080;-74
2023/04/27 09:42:39;;;;;;;1.55;0.70;;;16.80;76.00;;;;;;5032862;28;20472;-74
2023/04/27 09:45:06;;;;;;;0.63;0.55;;;16.80;76.00;;;;;;5032697;28;20053;-74
2023/04/27 09:47:32;;;;;;;1.20;0.80;;;16.80;76.00;;;;;;5032899;28;20026;-74
2023/04/27 09:49:58;;;;;;;0.50;0.43;;;16.80;76.00;;;;;;5032645;28;20125;-74
2023/04/27 09:52:25;;;;;;;1.17;0.70;;;16.80;76.00;;;;;;5032956;28;20527;-74
2023/04/27 09:54:51;;;;;;;1.23;0.68;;;16.80;76.10;;;;;;5033536;28;20487;-74
2023/04/27 09:57:27;;;;;;;0.90;0.60;;;16.80;76.00;;;;;;5032489;28;20037;-74
2023/04/27 09:59:59;;;;;;;0.80;0.60;;;16.80;76.00;;;;;;5032285;28;20025;-74
2023/04/27 10:02:24;;;;;;;1.35;0.63;;;16.80;76.00;;;;;;5032659;28;20104;-74
2023/04/27 10:05:28;;;;;;;0.75;0.50;;;16.80;76.00;;;;;;5015955;28;20452;-74
2023/04/27 10:07:54;;;;;;;0.80;0.73;;;16.80;76.00;;;;;;5032537;28;20499;-74
2023/04/27 10:10:19;;;;;;;1.95;0.77;;;16.80;76.00;;;;;;5032455;28;20033;-74
2023/04/27 10:13:00;;;;;;;0.40;0.40;;;16.80;76.00;;;;;;5033620;28;20026;-74
2023/04/27 10:15:29;;;;;;;0.68;0.40;;;16.80;76.00;;;;;;5031959;28;20021;-74
2023/04/27 10:17:57;;;;;;;0.93;0.40;;;16.80;76.00;;;;;;5033239;28;20399;-75
2023/04/27 10:20:30;;;;;;;1.42;0.80;;;16.80;76.00;;;;;;5034062;28;20021;-74
2023/04/27 10:22:58;;;;;;;1.70;0.70;;;16.80;76.00;;;;;;5033387;28;20125;-74
2023/04/27 10:25:27;;;;;;;0.80;0.55;;;16.80;77.00;;;;;;5033344;28;20024;-74
2023/04/27 10:27:54;;;;;;;0.75;0.50;;;16.80;76.00;;;;;;5015576;28;20400;-74
2023/04/27 10:30:20;;;;;;;0.75;0.35;;;16.80;76.00;;;;;;5032116;28;20488;-74
2023/04/27 10:32:50;;;;;;;1.00;0.60;;;16.80;76.00;;;;;;5015601;28;20034;-74
2023/04/27 10:35:16;;;;;;;1.85;0.60;;;16.80;76.00;;;;;;5015559;28;20025;-74
2023/04/27 10:37:42;;;;;;;1.10;0.50;;;16.80;76.00;;;;;;5015485;28;20044;-74
2023/04/27 10:40:13;;;;;;;1.33;0.68;;;16.80;76.00;;;;;;5031643;28;20029;-74
2023/04/27 10:42:43;;;;;;;0.52;0.43;;;16.80;76.00;;;;;;5031672;28;20060;-74
2023/04/27 10:45:10;;;;;;;0.63;0.40;;;16.80;76.00;;;;;;5031789;28;20032;-74
2023/04/27 10:47:42;;;;;;;0.60;0.40;;;16.80;76.00;;;;;;5031799;28;20021;-74
2023/04/27 10:50:14;;;;;;;1.73;0.50;;;16.80;76.00;;;;;;5031632;28;20087;-74
2023/04/27 10:52:41;;;;;;;1.83;0.60;;;16.80;76.00;;;;;;5015925;28;20021;-74
2023/04/27 10:55:17;;;;;;;2.72;0.52;;;16.80;76.00;;;;;;5031310;28;20056;-74
2023/04/27 10:57:50;;;;;;;0.68;0.40;;;16.80;76.00;;;;;;5031584;28;20124;-74
2023/04/27 11:00:26;;;;;;;1.30;0.50;;;16.80;76.00;;;;;;5031585;28;20017;-74
2023/04/27 11:02:52;;;;;;;0.73;0.40;;;16.80;76.00;;;;;;5031558;28;20094;-74
2023/04/27 11:05:24;;;;;;;1.27;0.52;;;16.80;76.10;;;;;;5015275;28;20049;-74
2023/04/27 11:07:50;;;;;;;0.40;0.40;;;16.80;76.00;;;;;;5015392;28;20092;-74
2023/04/27 11:10:19;;;;;;;0.98;0.30;;;16.80;76.00;;;;;;5032414;28;20069;-75
2023/04/27 11:12:45;;;;;;;1.02;0.40;;;16.80;76.00;;;;;;5031149;28;20025;-74
2023/04/27 11:15:11;;;;;;;0.50;0.43;;;16.80;76.00;;;;;;5032434;28;20029;-74
2023/04/27 11:17:37;;;;;;;0.85;0.50;;;16.80;76.10;;;;;;5031470;28;20056;-74
2023/04/27 11:20:07;;;;;;;0.63;0.43;;;16.80;76.10;;;;;;5014874;28;20025;-74
2023/04/27 11:22:33;;;;;;;0.68;0.45;;;16.80;76.10;;;;;;5015713;28;20468;-74
2023/04/27 11:24:59;;;;;;;0.60;0.50;;;16.80;76.10;;;;;;5031304;28;20479;-74
2023/04/27 11:27:35;;;;;;;0.40;0.40;;;16.80;76.10;;;;;;5014748;28;20057;-74
2023/04/27 11:30:01;;;;;;;1.40;0.40;;;16.80;76.10;;;;;;5030968;28;20112;-74
2023/04/27 11:32:27;;;;;;;0.50;0.40;;;16.80;76.10;;;;;;5032307;28;20496;-74
2023/04/27 11:34:52;;;;;;;0.57;0.40;;;16.80;76.20;;;;;;5031341;28;20025;-74
2023/04/27 11:37:25;;;;;;;0.73;0.40;;;16.80;76.10;;;;;;5032227;28;20491;-74
2023/04/27 11:39:52;;;;;;;0.40;0.32;;;16.80;76.10;;;;;;5031180;28;20097;-74
2023/04/27 11:42:25;;;;;;;0.70;0.30;;;16.80;76.10;;;;;;5030711;28;20417;-74
2023/04/27 11:45:01;;;;;;;0.63;0.35;;;16.80;76.10;;;;;;5031190;28;20009;-74
2023/04/27 11:47:28;;;;;;;0.70;0.40;;;16.80;76.20;;;;;;5030974;28;20325;-74
2023/04/27 11:49:58;;;;;;;0.43;0.32;;;16.80;76.10;;;;;;5031074;28;20017;-74
2023/04/27 11:52:31;;;;;;;0.95;0.40;;;16.80;76.10;;;;;;5033886;28;20029;-74
2023/04/27 11:54:57;;;;;;;1.23;0.50;;;16.80;76.10;;;;;;5018709;28;20025;-74
2023/04/27 11:57:26;;;;;;;0.52;0.40;;;16.80;76.10;;;;;;5034757;28;20045;-74
2023/04/27 11:59:52;;;;;;;0.47;0.30;;;16.80;76.10;;;;;;5035066;28;20075;-74
2023/04/27 12:02:21;;;;;;;0.22;0.22;;;16.80;76.10;;;;;;5034619;28;20037;-74
2023/04/27 12:04:47;;;;;;;0.47;0.30;;;16.80;76.10;;;;;;5018732;28;20113;-74
2023/04/27 12:07:13;;;;;;;0.40;0.40;;;16.80;76.10;;;;;;5034499;28;20026;-74
2023/04/27 12:09:39;;;;;;;0.45;0.30;;;16.80;76.10;;;;;;5034789;28;20025;-74
2023/04/27 12:12:05;;;;;;;1.13;0.40;;;16.80;76.10;;;;;;5035687;28;20527;-74
2023/04/27 12:14:31;;;;;;;0.30;0.25;;;16.80;76.10;;;;;;5034507;28;20079;-74
2023/04/27 12:16:56;;;;;;;0.30;0.30;;;16.80;76.20;;;;;;5036105;28;20026;-74
2023/04/27 12:19:24;;;;;;;1.10;0.50;;;16.80;76.10;;;;;;5034501;28;20022;-74
2023/04/27 12:21:51;;;;;;;0.40;0.40;;;16.80;76.20;;;;;;5034629;28;20016;-74
2023/04/27 12:24:16;;;;;;;0.40;0.30;;;16.80;76.10;;;;;;5034175;28;20523;-74
2023/04/27 12:26:42;;;;;;;1.38;0.40;;;16.80;76.20;;;;;;5035499;28;20029;-74
2023/04/27 12:29:08;;;;;;;0.52;0.30;;;16.80;76.20;;;;;;5035465;28;20488;-74
2023/04/27 12:31:34;;;;;;;0.50;0.32;;;16.80;76.20;;;;;;5035536;28;20504;-74
2023/04/27 12:34:01;;;;;;;0.57;0.40;;;16.80;77.10;;;;;;5035295;28;20105;-74
2023/04/27 12:36:27;;;;;;;0.32;0.32;;;16.80;76.20;;;;;;5035428;28;20109;-74
2023/04/27 12:39:12;;;;;;;0.32;0.20;;;16.80;76.10;;;;;;5034090;28;20028;-74
2023/04/27 12:41:38;;;;;;;0.57;0.38;;;16.80;76.20;;;;;;5034295;28;20025;-74
2023/04/27 12:44:05;;;;;;;0.43;0.40;;;16.80;76.10;;;;;;5035058;28;20060;-74
2023/04/27 12:46:31;;;;;;;0.45;0.30;;;16.80;76.20;;;;;;5035045;28;20052;-74